createdAt,value
2022-09-07T00:04:21.391Z,1.4
2022-09-07T00:10:21.024Z,1.3
2022-09-07T00:16:41.776Z,1.5
2022-09-07T00:22:41.731Z,1.3
2022-09-07T00:34:34.045Z,1.8
2022-09-07T00:40:32.693Z,1.7
2022-09-07T00:58:33.733Z,2
2022-09-07T01:05:06.452Z,2.3
2022-09-07T01:11:16.084Z,2.5
2022-09-07T01:17:12.935Z,2.5
2022-09-07T01:23:09.129Z,2.2
2022-09-07T01:29:03.121Z,3.4
2022-09-07T01:35:01.749Z,3.1
2022-09-07T01:41:17.621Z,2.8
2022-09-07T01:47:21.285Z,2.8
2022-09-07T01:53:42.581Z,3
2022-09-07T01:59:53.363Z,2.6
2022-09-07T02:12:57.549Z,3
2022-09-07T02:19:08.091Z,2.5
2022-09-07T02:25:06.203Z,3
2022-09-07T02:31:26.217Z,3.3
2022-09-07T02:37:31.306Z,3.4
2022-09-07T02:43:32.592Z,3.4
2022-09-07T02:49:50.356Z,4.1
2022-09-07T02:55:44.863Z,4
2022-09-07T03:01:56.591Z,4.1
2022-09-07T03:08:05.154Z,4.3
2022-09-07T03:14:22.460Z,4.8
2022-09-07T03:20:14.477Z,4
2022-09-07T03:26:16.546Z,4.2
2022-09-07T03:32:10.368Z,3.8
2022-09-07T03:38:04.053Z,5.1
2022-09-07T03:44:03.871Z,4
2022-09-07T03:50:02.155Z,3.7
2022-09-07T03:56:19.803Z,6.1
2022-09-07T04:02:21.086Z,5.4
2022-09-07T04:08:28.915Z,5.2
2022-09-07T04:14:33.314Z,5
2022-09-07T04:20:29.900Z,10.2
2022-09-07T04:26:20.771Z,11.9
2022-09-07T04:32:18.080Z,11.8
2022-09-07T04:38:15.758Z,12.7
2022-09-07T04:44:24.118Z,11.9
2022-09-07T04:50:26.667Z,14.9
2022-09-07T04:56:24.302Z,14.7
2022-09-07T05:02:27.078Z,14.7
2022-09-07T05:08:22.303Z,14.8
2022-09-07T05:14:14.403Z,18.6
2022-09-07T05:20:05.322Z,19.1
2022-09-07T05:25:54.850Z,18
2022-09-07T05:31:43.454Z,16.4
2022-09-07T05:37:33.266Z,15.7
2022-09-07T05:43:23.231Z,16.9
2022-09-07T05:49:13.208Z,14.8
2022-09-07T05:55:35.885Z,14
2022-09-07T06:01:23.380Z,15.9
2022-09-07T06:07:29.555Z,15.8
2022-09-07T06:13:17.994Z,17.2
2022-09-07T06:19:09.919Z,17.4
2022-09-07T06:25:00.465Z,15
2022-09-07T06:30:51.649Z,14.4
2022-09-07T06:36:43.057Z,15.1
2022-09-07T06:42:36.324Z,18.6
2022-09-07T06:48:28.234Z,20
2022-09-07T06:55:06.416Z,17.2
2022-09-07T07:00:54.874Z,16.4
2022-09-07T07:06:46.509Z,16.6
2022-09-07T07:18:27.562Z,13.9
2022-09-07T07:24:19.822Z,11.8
2022-09-07T07:30:11.351Z,10.4
2022-09-07T07:36:02.214Z,10.7
2022-09-07T07:42:09.287Z,7.4
2022-09-07T07:47:59.627Z,6.2
2022-09-07T07:53:50.682Z,4.2
2022-09-07T07:59:42.268Z,4.2
2022-09-07T08:05:35.995Z,7.5
2022-09-07T08:11:29.804Z,6.5
2022-09-07T08:17:20.386Z,5.3
2022-09-07T08:23:11.785Z,4.5
2022-09-07T08:29:03.684Z,4.6
2022-09-07T08:34:58.953Z,4.3
2022-09-07T08:40:54.622Z,4.7
2022-09-07T08:46:51.295Z,5.3
2022-09-07T08:52:47.326Z,5.6
2022-09-07T08:59:07.676Z,5
2022-09-07T09:05:28.519Z,4.1
2022-09-07T09:11:17.895Z,3.9
2022-09-07T09:17:09.526Z,3.5
2022-09-07T09:23:05.828Z,3.8
2022-09-07T09:28:57.125Z,3.7
2022-09-07T09:34:48.035Z,3.7
2022-09-07T09:40:39.433Z,3.3
2022-09-07T09:46:34.666Z,3.6
2022-09-07T09:52:58.268Z,3.1
2022-09-07T10:00:19.390Z,2.7
2022-09-07T10:06:12.342Z,2.3
2022-09-07T10:12:18.290Z,2.4
2022-09-07T10:18:08.240Z,2.4
2022-09-07T10:24:00.498Z,2.2
2022-09-07T10:29:51.342Z,2.8
2022-09-07T10:35:45.787Z,2.6
2022-09-07T10:41:37.864Z,2.3
2022-09-07T10:47:32.240Z,2.3
2022-09-07T10:54:29.859Z,2.2
2022-09-07T11:00:18.349Z,2.2
2022-09-07T11:06:09.535Z,2.3
2022-09-07T11:14:20.270Z,2.1
2022-09-07T11:20:08.952Z,2.4
2022-09-07T11:26:02.035Z,2.3
2022-09-07T11:31:52.751Z,2.5
2022-09-07T11:37:47.002Z,2.3
2022-09-07T11:43:37.800Z,2.6
2022-09-07T11:49:35.414Z,2.4
2022-09-07T11:55:47.002Z,2.2
2022-09-07T12:26:14.214Z,2
2022-09-07T12:39:14.978Z,1.7
2022-09-07T12:45:05.937Z,1.7
2022-09-07T12:51:09.758Z,1.4
2022-09-07T13:04:01.896Z,1.2
2022-09-07T13:09:50.426Z,1.5
2022-09-07T13:21:44.111Z,1.4
2022-09-07T13:27:33.480Z,1.2
2022-09-07T13:33:36.612Z,1.3
2022-09-07T13:39:37.053Z,1.1
2022-09-07T13:45:44.947Z,0.9
2022-09-07T13:51:35.596Z,0.9
2022-09-07T13:57:39.206Z,1.1
2022-09-07T14:03:34.016Z,1.1
2022-09-07T14:09:33.610Z,1
2022-09-07T14:15:29.040Z,1.1
2022-09-07T14:21:20.691Z,1.1
2022-09-07T14:27:10.863Z,1.3
2022-09-07T14:33:04.120Z,1.1
2022-09-07T14:39:27.107Z,1.1
2022-09-07T14:45:18.289Z,1.1
2022-09-07T14:51:42.255Z,1
2022-09-07T14:57:29.844Z,1
2022-09-07T15:03:20.323Z,0.9
2022-09-07T15:09:12.152Z,1
2022-09-07T15:15:02.736Z,0.9
2022-09-07T15:20:52.994Z,0.9
2022-09-07T15:27:13.558Z,1
2022-09-07T15:33:04.033Z,1
2022-09-07T15:39:10.447Z,1.1
2022-09-07T15:45:03.827Z,1.2
2022-09-07T15:50:55.445Z,1.5
2022-09-07T15:58:14.462Z,1.6
2022-09-07T16:04:06.292Z,1.6
2022-09-07T16:10:04.282Z,1.3
2022-09-07T16:15:55.316Z,1
2022-09-07T16:21:47.191Z,1.3
2022-09-07T16:27:39.948Z,1.2
2022-09-07T16:33:43.667Z,1.2
2022-09-07T16:39:37.859Z,1
2022-09-07T17:02:58.375Z,1.5
2022-09-07T17:08:46.419Z,1.3
2022-09-07T17:14:35.376Z,1.3
2022-09-07T17:20:28.250Z,1.2
2022-09-07T17:26:18.671Z,1.2
2022-09-07T17:32:40.820Z,1.4
2022-09-07T17:39:30.299Z,1.5
2022-09-07T17:45:18.931Z,1.4
2022-09-07T17:51:09.716Z,1.7
2022-09-07T17:57:00.589Z,1.6
2022-09-07T18:02:52.500Z,2.3
2022-09-07T18:08:43.357Z,1.8
2022-09-07T18:14:34.249Z,1.7
2022-09-07T18:20:25.891Z,1.7
2022-09-07T18:26:17.511Z,2.4
2022-09-07T18:32:11.780Z,1.9
2022-09-07T18:38:04.608Z,1.6
2022-09-07T18:43:56.707Z,1.8
2022-09-07T18:49:49.103Z,1.5
2022-09-07T18:55:40.525Z,1.5
2022-09-07T19:01:35.657Z,1.5
2022-09-07T19:07:32.748Z,1.5
2022-09-07T19:13:23.335Z,1.7
2022-09-07T19:19:13.694Z,1.8
2022-09-07T19:25:04.886Z,1.7
2022-09-07T19:30:54.855Z,1.6
2022-09-07T19:36:45.378Z,1.7
2022-09-07T19:42:35.071Z,1.6
2022-09-07T19:48:25.831Z,3.4
2022-09-07T19:54:16.130Z,2.3
2022-09-07T20:00:07.181Z,2
2022-09-07T20:05:57.966Z,2
2022-09-07T20:11:52.711Z,3
2022-09-07T20:17:42.213Z,2.7
2022-09-07T20:23:32.300Z,2.4
2022-09-07T20:29:34.336Z,2.5
2022-09-07T20:35:23.119Z,2.2
2022-09-07T20:41:13.475Z,2.2
2022-09-07T20:47:05.489Z,2.2
2022-09-07T20:52:55.869Z,2.7
2022-09-07T20:58:47.152Z,2.2
2022-09-07T21:04:38.646Z,2.7
2022-09-07T21:10:30.389Z,2.8
2022-09-07T21:16:21.398Z,2.7
2022-09-07T21:22:12.388Z,2.5
2022-09-07T21:28:03.234Z,2.8
2022-09-07T21:33:54.210Z,2.9
2022-09-07T21:39:45.699Z,2.8
2022-09-07T21:45:36.547Z,2.6
2022-09-07T21:51:29.180Z,2.9
2022-09-07T21:57:19.783Z,2.8
2022-09-07T22:03:11.229Z,2.5
2022-09-07T22:09:02.222Z,2.7
2022-09-07T22:14:52.745Z,2.7
2022-09-07T22:20:43.052Z,2.8
2022-09-07T22:26:34.421Z,2.8
2022-09-07T22:32:25.530Z,3.1
2022-09-07T22:38:16.218Z,2.9
2022-09-07T22:44:07.944Z,2.9
2022-09-07T22:50:00.733Z,2.8
2022-09-07T22:55:55.014Z,3.1
2022-09-07T23:01:49.037Z,3.1
2022-09-07T23:07:46.411Z,2.9
2022-09-07T23:14:09.241Z,2.7
